sensor_id;sensor_type;location;lat;lon;timestamp;pressure;altitude;pressure_sealevel;temperature;humidity
71974;BME280;59840;52.122;5.404;2022-09-09T00:01:28;100872.47;;;14.35;94.78
71974;BME280;59840;52.122;5.404;2022-09-09T00:04:13;100863.72;;;14.34;95.25
71974;BME280;59840;52.122;5.404;2022-09-09T00:06:50;100859.47;;;14.38;95.05
71974;BME280;59840;52.122;5.404;2022-09-09T00:09:35;100853.38;;;14.38;94.79
71974;BME280;59840;52.122;5.404;2022-09-09T00:20:05;100843.53;;;14.38;95.23
71974;BME280;59840;52.122;5.404;2022-09-09T00:22:40;100845.94;;;14.35;95.38
71974;BME280;59840;52.122;5.404;2022-09-09T00:25:23;100846.47;;;14.32;95.30
71974;BME280;59840;52.122;5.404;2022-09-09T00:27:54;100843.28;;;14.30;95.20
71974;BME280;59840;52.122;5.404;2022-09-09T00:30:26;100844.63;;;14.27;95.42
71974;BME280;59840;52.122;5.404;2022-09-09T00:32:55;100846.47;;;14.27;95.12
71974;BME280;59840;52.122;5.404;2022-09-09T00:35:34;100848.59;;;14.25;95.48
71974;BME280;59840;52.122;5.404;2022-09-09T00:38:13;100855.81;;;14.19;95.14
71974;BME280;59840;52.122;5.404;2022-09-09T00:40:52;100851.28;;;14.20;95.58
71974;BME280;59840;52.122;5.404;2022-09-09T00:43:26;100850.50;;;14.19;95.74
71974;BME280;59840;52.122;5.404;2022-09-09T00:48:23;100843.34;;;14.15;95.76
71974;BME280;59840;52.122;5.404;2022-09-09T00:51:00;100841.47;;;14.10;95.77
71974;BME280;59840;52.122;5.404;2022-09-09T00:56:47;100846.78;;;14.05;95.84
71974;BME280;59840;52.122;5.404;2022-09-09T01:02:27;100847.06;;;13.98;95.91
71974;BME280;59840;52.122;5.404;2022-09-09T01:05:05;100852.63;;;13.92;95.76
71974;BME280;59840;52.122;5.404;2022-09-09T01:07:33;100860.84;;;13.90;96.07
71974;BME280;59840;52.122;5.404;2022-09-09T01:10:05;100856.06;;;13.87;96.34
71974;BME280;59840;52.122;5.404;2022-09-09T01:12:39;100856.34;;;13.81;95.87
71974;BME280;59840;52.122;5.404;2022-09-09T01:15:15;100861.38;;;13.77;96.47
71974;BME280;59840;52.122;5.404;2022-09-09T01:20:23;100850.50;;;13.73;96.43
71974;BME280;59840;52.122;5.404;2022-09-09T01:23:24;100849.19;;;13.71;96.71
71974;BME280;59840;52.122;5.404;2022-09-09T01:28:54;100830.63;;;13.71;96.52
71974;BME280;59840;52.122;5.404;2022-09-09T01:31:37;100838.03;;;13.74;96.44
71974;BME280;59840;52.122;5.404;2022-09-09T01:34:14;100827.44;;;13.69;96.63
71974;BME280;59840;52.122;5.404;2022-09-09T01:36:49;100830.34;;;13.67;96.48
71974;BME280;59840;52.122;5.404;2022-09-09T01:39:18;100826.09;;;13.66;96.35
71974;BME280;59840;52.122;5.404;2022-09-09T01:41:46;100831.41;;;13.66;96.31
71974;BME280;59840;52.122;5.404;2022-09-09T01:44:13;100835.38;;;13.64;96.59
71974;BME280;59840;52.122;5.404;2022-09-09T01:46:39;100828.47;;;13.63;96.59
71974;BME280;59840;52.122;5.404;2022-09-09T01:49:06;100829.28;;;13.63;96.54
71974;BME280;59840;52.122;5.404;2022-09-09T01:51:35;100828.22;;;13.59;96.52
71974;BME280;59840;52.122;5.404;2022-09-09T01:54:03;100841.72;;;13.58;96.50
71974;BME280;59840;52.122;5.404;2022-09-09T01:56:56;100838.53;;;13.56;96.65
71974;BME280;59840;52.122;5.404;2022-09-09T02:04:54;100820.50;;;13.53;96.44
71974;BME280;59840;52.122;5.404;2022-09-09T02:07:40;100815.75;;;13.50;96.41
71974;BME280;59840;52.122;5.404;2022-09-09T02:10:40;100815.22;;;13.48;96.77
71974;BME280;59840;52.122;5.404;2022-09-09T02:13:14;100819.75;;;13.47;96.86
71974;BME280;59840;52.122;5.404;2022-09-09T02:15:49;100807.00;;;13.44;96.81
71974;BME280;59840;52.122;5.404;2022-09-09T02:19:08;100811.50;;;13.44;96.94
71974;BME280;59840;52.122;5.404;2022-09-09T02:21:11;100814.16;;;13.44;96.87
71974;BME280;59840;52.122;5.404;2022-09-09T02:23:39;100806.75;;;13.46;96.90
71974;BME280;59840;52.122;5.404;2022-09-09T02:26:09;100815.22;;;13.43;96.88
71974;BME280;59840;52.122;5.404;2022-09-09T02:28:37;100815.75;;;13.39;96.55
71974;BME280;59840;52.122;5.404;2022-09-09T02:31:05;100809.91;;;13.37;96.86
71974;BME280;59840;52.122;5.404;2022-09-09T02:33:39;100811.50;;;13.38;96.57
71974;BME280;59840;52.122;5.404;2022-09-09T02:36:09;100809.66;;;13.39;96.84
71974;BME280;59840;52.122;5.404;2022-09-09T02:38:41;100806.75;;;13.40;96.92
71974;BME280;59840;52.122;5.404;2022-09-09T02:41:09;100804.59;;;13.37;96.73
71974;BME280;59840;52.122;5.404;2022-09-09T02:43:35;100808.31;;;13.36;97.08
71974;BME280;59840;52.122;5.404;2022-09-09T02:49:18;100809.38;;;13.35;96.96
71974;BME280;59840;52.122;5.404;2022-09-09T02:51:55;100810.97;;;13.36;97.01
71974;BME280;59840;52.122;5.404;2022-09-09T02:54:30;100810.44;;;13.34;96.76
71974;BME280;59840;52.122;5.404;2022-09-09T02:57:25;100807.25;;;13.32;96.79
71974;BME280;59840;52.122;5.404;2022-09-09T02:59:56;100796.13;;;13.30;96.64
71974;BME280;59840;52.122;5.404;2022-09-09T03:02:24;100806.19;;;13.28;96.97
71974;BME280;59840;52.122;5.404;2022-09-09T03:04:51;100808.81;;;13.28;97.04
71974;BME280;59840;52.122;5.404;2022-09-09T03:07:19;100812.78;;;13.26;97.08
71974;BME280;59840;52.122;5.404;2022-09-09T03:09:45;100810.69;;;13.28;96.84
71974;BME280;59840;52.122;5.404;2022-09-09T03:12:12;100800.88;;;13.28;96.81
71974;BME280;59840;52.122;5.404;2022-09-09T03:14:39;100800.59;;;13.25;96.97
71974;BME280;59840;52.122;5.404;2022-09-09T03:17:05;100800.88;;;13.23;97.15
71974;BME280;59840;52.122;5.404;2022-09-09T03:19:32;100799.53;;;13.21;96.72
71974;BME280;59840;52.122;5.404;2022-09-09T03:21:59;100812.00;;;13.20;96.67
71974;BME280;59840;52.122;5.404;2022-09-09T03:24:26;100807.50;;;13.16;97.01
71974;BME280;59840;52.122;5.404;2022-09-09T03:26:52;100797.94;;;13.15;96.86
71974;BME280;59840;52.122;5.404;2022-09-09T03:29:19;100796.59;;;13.12;96.83
71974;BME280;59840;52.122;5.404;2022-09-09T03:31:45;100800.31;;;13.11;96.94
71974;BME280;59840;52.122;5.404;2022-09-09T03:34:12;100793.41;;;13.10;96.89
71974;BME280;59840;52.122;5.404;2022-09-09T03:36:39;100793.94;;;13.12;96.83
71974;BME280;59840;52.122;5.404;2022-09-09T03:39:07;100801.34;;;13.10;97.27
71974;BME280;59840;52.122;5.404;2022-09-09T03:41:33;100800.03;;;13.07;97.00
71974;BME280;59840;52.122;5.404;2022-09-09T03:44:00;100804.00;;;13.10;97.00
71974;BME280;59840;52.122;5.404;2022-09-09T03:46:26;100796.03;;;13.05;96.81
71974;BME280;59840;52.122;5.404;2022-09-09T03:48:53;100799.75;;;13.04;97.01
71974;BME280;59840;52.122;5.404;2022-09-09T03:51:19;100794.16;;;13.00;96.86
71974;BME280;59840;52.122;5.404;2022-09-09T03:53:47;100793.13;;;13.01;97.41
71974;BME280;59840;52.122;5.404;2022-09-09T03:56:13;100789.16;;;13.04;97.27
71974;BME280;59840;52.122;5.404;2022-09-09T03:58:40;100792.84;;;13.03;97.00
71974;BME280;59840;52.122;5.404;2022-09-09T04:01:12;100788.63;;;13.02;97.19
71974;BME280;59840;52.122;5.404;2022-09-09T04:03:40;100790.72;;;13.00;97.51
71974;BME280;59840;52.122;5.404;2022-09-09T04:06:08;100791.78;;;12.99;97.49
71974;BME280;59840;52.122;5.404;2022-09-09T04:08:35;100781.19;;;12.99;97.43
71974;BME280;59840;52.122;5.404;2022-09-09T04:11:02;100783.84;;;12.99;97.34
71974;BME280;59840;52.122;5.404;2022-09-09T04:13:33;100789.41;;;12.97;97.49
71974;BME280;59840;52.122;5.404;2022-09-09T04:16:02;100791.25;;;12.97;97.26
71974;BME280;59840;52.122;5.404;2022-09-09T04:18:30;100790.72;;;12.95;97.23
71974;BME280;59840;52.122;5.404;2022-09-09T04:20:57;100792.56;;;12.94;97.41
71974;BME280;59840;52.122;5.404;2022-09-09T04:23:27;100783.81;;;12.94;97.61
71974;BME280;59840;52.122;5.404;2022-09-09T04:25:56;100777.22;;;12.96;97.61
71974;BME280;59840;52.122;5.404;2022-09-09T04:28:25;100779.59;;;12.98;97.70
71974;BME280;59840;52.122;5.404;2022-09-09T04:30:52;100777.75;;;12.98;98.05
71974;BME280;59840;52.122;5.404;2022-09-09T04:33:19;100776.69;;;12.99;97.80
71974;BME280;59840;52.122;5.404;2022-09-09T04:35:48;100775.38;;;13.02;98.11
71974;BME280;59840;52.122;5.404;2022-09-09T04:38:16;100783.06;;;13.03;98.19
71974;BME280;59840;52.122;5.404;2022-09-09T04:40:43;100780.69;;;13.07;98.19
71974;BME280;59840;52.122;5.404;2022-09-09T04:43:13;100778.31;;;13.11;98.10
71974;BME280;59840;52.122;5.404;2022-09-09T04:45:44;100777.53;;;13.15;98.38
71974;BME280;59840;52.122;5.404;2022-09-09T04:48:13;100770.41;;;13.16;98.20
71974;BME280;59840;52.122;5.404;2022-09-09T04:50:40;100769.06;;;13.18;98.19
71974;BME280;59840;52.122;5.404;2022-09-09T04:53:07;100766.16;;;13.20;98.19
71974;BME280;59840;52.122;5.404;2022-09-09T04:55:34;100758.47;;;13.18;98.07
71974;BME280;59840;52.122;5.404;2022-09-09T04:58:05;100759.53;;;13.17;97.93
71974;BME280;59840;52.122;5.404;2022-09-09T05:00:32;100762.97;;;13.18;98.37
71974;BME280;59840;52.122;5.404;2022-09-09T05:03:05;100769.59;;;13.15;98.20
71974;BME280;59840;52.122;5.404;2022-09-09T05:05:33;100771.69;;;13.13;97.94
71974;BME280;59840;52.122;5.404;2022-09-09T05:08:04;100771.69;;;13.13;98.08
71974;BME280;59840;52.122;5.404;2022-09-09T05:10:31;100777.00;;;13.13;98.12
71974;BME280;59840;52.122;5.404;2022-09-09T05:12:57;100775.94;;;13.14;97.81
71974;BME280;59840;52.122;5.404;2022-09-09T05:15:24;100768.00;;;13.14;97.96
71974;BME280;59840;52.122;5.404;2022-09-09T05:17:50;100777.31;;;13.17;98.09
71974;BME280;59840;52.122;5.404;2022-09-09T05:20:19;100769.59;;;13.15;97.89
71974;BME280;59840;52.122;5.404;2022-09-09T05:22:45;100772.22;;;13.15;98.01
71974;BME280;59840;52.122;5.404;2022-09-09T05:25:12;100758.75;;;13.17;97.95
71974;BME280;59840;52.122;5.404;2022-09-09T05:27:38;100762.16;;;13.17;97.85
71974;BME280;59840;52.122;5.404;2022-09-09T05:30:05;100752.66;;;13.16;97.99
71974;BME280;59840;52.122;5.404;2022-09-09T05:32:32;100753.16;;;13.18;98.34
71974;BME280;59840;52.122;5.404;2022-09-09T05:34:59;100757.16;;;13.21;98.12
71974;BME280;59840;52.122;5.404;2022-09-09T05:37:26;100755.03;;;13.23;98.47
71974;BME280;59840;52.122;5.404;2022-09-09T05:39:52;100757.41;;;13.24;98.26
71974;BME280;59840;52.122;5.404;2022-09-09T05:42:19;100759.81;;;13.26;98.31
71974;BME280;59840;52.122;5.404;2022-09-09T05:44:46;100765.63;;;13.28;98.30
71974;BME280;59840;52.122;5.404;2022-09-09T05:47:12;100762.47;;;13.31;98.38
71974;BME280;59840;52.122;5.404;2022-09-09T05:49:39;100759.56;;;13.32;97.93
71974;BME280;59840;52.122;5.404;2022-09-09T05:52:05;100761.94;;;13.34;98.37
71974;BME280;59840;52.122;5.404;2022-09-09T05:54:32;100752.94;;;13.35;98.07
71974;BME280;59840;52.122;5.404;2022-09-09T05:56:59;100757.69;;;13.38;98.44
71974;BME280;59840;52.122;5.404;2022-09-09T05:59:25;100759.56;;;13.43;98.28
71974;BME280;59840;52.122;5.404;2022-09-09T06:01:52;100764.34;;;13.46;98.56
71974;BME280;59840;52.122;5.404;2022-09-09T06:04:19;100772.81;;;13.48;98.65
71974;BME280;59840;52.122;5.404;2022-09-09T06:06:50;100776.00;;;13.50;98.39
71974;BME280;59840;52.122;5.404;2022-09-09T06:09:17;100772.28;;;13.56;98.66
71974;BME280;59840;52.122;5.404;2022-09-09T06:11:43;100766.72;;;13.62;98.64
71974;BME280;59840;52.122;5.404;2022-09-09T06:14:10;100771.22;;;13.67;98.78
71974;BME280;59840;52.122;5.404;2022-09-09T06:16:36;100769.63;;;13.71;98.76
71974;BME280;59840;52.122;5.404;2022-09-09T06:19:04;100768.31;;;13.79;98.87
71974;BME280;59840;52.122;5.404;2022-09-09T06:21:32;100759.53;;;13.83;98.82
71974;BME280;59840;52.122;5.404;2022-09-09T06:24:00;100760.03;;;13.90;99.05
71974;BME280;59840;52.122;5.404;2022-09-09T06:26:34;100764.03;;;13.93;98.67
71974;BME280;59840;52.122;5.404;2022-09-09T06:29:02;100766.41;;;13.99;98.87
71974;BME280;59840;52.122;5.404;2022-09-09T06:31:32;100761.63;;;14.01;98.43
71974;BME280;59840;52.122;5.404;2022-09-09T06:34:00;100757.09;;;14.07;98.70
71974;BME280;59840;52.122;5.404;2022-09-09T06:36:32;100754.19;;;14.14;98.48
71974;BME280;59840;52.122;5.404;2022-09-09T06:38:59;100755.72;;;14.25;98.58
71974;BME280;59840;52.122;5.404;2022-09-09T06:41:29;100742.94;;;14.37;98.06
71974;BME280;59840;52.122;5.404;2022-09-09T06:43:56;100752.47;;;14.53;98.02
71974;BME280;59840;52.122;5.404;2022-09-09T06:46:25;100747.09;;;14.63;97.65
71974;BME280;59840;52.122;5.404;2022-09-09T06:48:56;100754.50;;;14.71;97.61
71974;BME280;59840;52.122;5.404;2022-09-09T06:51:28;100747.06;;;14.73;97.04
71974;BME280;59840;52.122;5.404;2022-09-09T06:53:57;100747.84;;;14.79;96.80
71974;BME280;59840;52.122;5.404;2022-09-09T06:56:35;100750.75;;;14.83;96.47
71974;BME280;59840;52.122;5.404;2022-09-09T06:59:04;100750.72;;;14.88;96.16
71974;BME280;59840;52.122;5.404;2022-09-09T07:01:33;100749.66;;;14.89;96.07
71974;BME280;59840;52.122;5.404;2022-09-09T07:04:00;100750.66;;;14.93;96.36
71974;BME280;59840;52.122;5.404;2022-09-09T07:06:32;100757.53;;;14.99;96.29
71974;BME280;59840;52.122;5.404;2022-09-09T07:09:01;100758.03;;;15.06;95.67
71974;BME280;59840;52.122;5.404;2022-09-09T07:11:32;100754.28;;;15.12;94.58
71974;BME280;59840;52.122;5.404;2022-09-09T07:14:00;100750.25;;;15.20;94.96
71974;BME280;59840;52.122;5.404;2022-09-09T07:16:27;100753.63;;;15.25;94.66
71974;BME280;59840;52.122;5.404;2022-09-09T07:18:54;100752.00;;;15.29;94.26
71974;BME280;59840;52.122;5.404;2022-09-09T07:21:25;100754.66;;;15.29;94.04
71974;BME280;59840;52.122;5.404;2022-09-09T07:23:53;100760.22;;;15.33;94.28
71974;BME280;59840;52.122;5.404;2022-09-09T07:26:25;100744.00;;;15.34;94.33
71974;BME280;59840;52.122;5.404;2022-09-09T07:28:53;100757.28;;;15.34;93.84
71974;BME280;59840;52.122;5.404;2022-09-09T07:31:28;100758.88;;;15.35;93.79
71974;BME280;59840;52.122;5.404;2022-09-09T07:33:57;100771.66;;;15.33;93.26
71974;BME280;59840;52.122;5.404;2022-09-09T07:36:34;100763.69;;;15.33;93.16
71974;BME280;59840;52.122;5.404;2022-09-09T07:39:04;100768.41;;;15.41;92.61
71974;BME280;59840;52.122;5.404;2022-09-09T07:41:35;100773.91;;;15.55;92.72
71974;BME280;59840;52.122;5.404;2022-09-09T07:44:07;100764.97;;;15.75;92.21
71974;BME280;59840;52.122;5.404;2022-09-09T07:46:35;100760.06;;;15.87;90.65
71974;BME280;59840;52.122;5.404;2022-09-09T07:49:02;100760.31;;;15.91;90.17
71974;BME280;59840;52.122;5.404;2022-09-09T07:51:32;100766.06;;;15.98;90.36
71974;BME280;59840;52.122;5.404;2022-09-09T07:54:05;100760.94;;;16.06;90.30
71974;BME280;59840;52.122;5.404;2022-09-09T07:56:32;100757.13;;;16.13;89.83
71974;BME280;59840;52.122;5.404;2022-09-09T07:58:59;100750.47;;;16.15;88.97
71974;BME280;59840;52.122;5.404;2022-09-09T08:01:31;100762.19;;;16.14;89.68
71974;BME280;59840;52.122;5.404;2022-09-09T08:04:01;100761.91;;;16.16;89.96
71974;BME280;59840;52.122;5.404;2022-09-09T08:06:30;100765.63;;;16.15;89.17
71974;BME280;59840;52.122;5.404;2022-09-09T08:08:57;100762.19;;;16.14;89.90
71974;BME280;59840;52.122;5.404;2022-09-09T08:11:25;100770.72;;;16.11;88.31
71974;BME280;59840;52.122;5.404;2022-09-09T08:13:52;100765.19;;;16.07;88.18
71974;BME280;59840;52.122;5.404;2022-09-09T08:16:28;100774.03;;;15.98;87.14
71974;BME280;59840;52.122;5.404;2022-09-09T08:18:56;100765.06;;;15.94;87.90
71974;BME280;59840;52.122;5.404;2022-09-09T08:21:29;100761.31;;;15.95;88.62
71974;BME280;59840;52.122;5.404;2022-09-09T08:23:57;100773.81;;;15.94;88.35
71974;BME280;59840;52.122;5.404;2022-09-09T08:26:33;100768.00;;;15.92;88.18
71974;BME280;59840;52.122;5.404;2022-09-09T08:29:01;100778.13;;;15.90;88.21
71974;BME280;59840;52.122;5.404;2022-09-09T08:31:36;100776.00;;;15.92;88.29
71974;BME280;59840;52.122;5.404;2022-09-09T08:34:04;100785.56;;;15.93;88.86
71974;BME280;59840;52.122;5.404;2022-09-09T08:36:34;100778.66;;;15.92;88.85
71974;BME280;59840;52.122;5.404;2022-09-09T08:39:03;100782.66;;;15.90;88.38
71974;BME280;59840;52.122;5.404;2022-09-09T08:41:59;100787.72;;;15.91;88.23
71974;BME280;59840;52.122;5.404;2022-09-09T08:50:22;100789.41;;;16.06;87.80
71974;BME280;59840;52.122;5.404;2022-09-09T08:53:02;100787.53;;;16.06;86.95
71974;BME280;59840;52.122;5.404;2022-09-09T08:55:44;100792.81;;;16.12;87.70
71974;BME280;59840;52.122;5.404;2022-09-09T08:58:18;100794.06;;;16.19;87.30
71974;BME280;59840;52.122;5.404;2022-09-09T09:04:37;100796.41;;;16.26;86.98
71974;BME280;59840;52.122;5.404;2022-09-09T09:06:38;100791.28;;;16.29;85.72
71974;BME280;59840;52.122;5.404;2022-09-09T09:11:56;100798.16;;;16.35;85.99
71974;BME280;59840;52.122;5.404;2022-09-09T09:14:29;100796.56;;;16.34;86.86
71974;BME280;59840;52.122;5.404;2022-09-09T09:16:59;100795.34;;;16.27;85.76
71974;BME280;59840;52.122;5.404;2022-09-09T09:19:27;100797.47;;;16.25;85.66
71974;BME280;59840;52.122;5.404;2022-09-09T09:27:32;100798.28;;;16.25;85.78
71974;BME280;59840;52.122;5.404;2022-09-09T09:30:02;100806.47;;;16.29;85.84
71974;BME280;59840;52.122;5.404;2022-09-09T09:35:27;100807.22;;;16.34;86.10
71974;BME280;59840;52.122;5.404;2022-09-09T09:37:54;100801.59;;;16.36;85.66
71974;BME280;59840;52.122;5.404;2022-09-09T09:40:52;100807.44;;;16.38;84.73
71974;BME280;59840;52.122;5.404;2022-09-09T09:43:27;100803.47;;;16.35;84.48
71974;BME280;59840;52.122;5.404;2022-09-09T09:45:55;100802.69;;;16.35;84.45
71974;BME280;59840;52.122;5.404;2022-09-09T09:48:43;100797.34;;;16.35;84.75
71974;BME280;59840;52.122;5.404;2022-09-09T09:51:12;100804.78;;;16.38;83.96
71974;BME280;59840;52.122;5.404;2022-09-09T09:53:41;100804.94;;;16.47;84.38
71974;BME280;59840;52.122;5.404;2022-09-09T09:56:10;100802.47;;;16.55;83.93
71974;BME280;59840;52.122;5.404;2022-09-09T10:01:32;100803.25;;;16.56;84.03
71974;BME280;59840;52.122;5.404;2022-09-09T10:04:20;100801.38;;;16.56;83.58
71974;BME280;59840;52.122;5.404;2022-09-09T10:06:50;100790.72;;;16.56;83.24
71974;BME280;59840;52.122;5.404;2022-09-09T10:09:28;100797.06;;;16.60;84.29
71974;BME280;59840;52.122;5.404;2022-09-09T10:12:06;100789.59;;;16.62;83.50
71974;BME280;59840;52.122;5.404;2022-09-09T10:17:48;100789.16;;;16.55;83.31
71974;BME280;59840;52.122;5.404;2022-09-09T10:23:15;100789.94;;;16.56;83.55
71974;BME280;59840;52.122;5.404;2022-09-09T10:28:33;100797.69;;;16.52;83.66
71974;BME280;59840;52.122;5.404;2022-09-09T10:34:08;100813.63;;;16.57;85.78
71974;BME280;59840;52.122;5.404;2022-09-09T10:36:45;100820.66;;;16.48;86.88
71974;BME280;59840;52.122;5.404;2022-09-09T10:39:33;100809.53;;;16.41;87.33
71974;BME280;59840;52.122;5.404;2022-09-09T10:42:14;100811.97;;;16.37;87.44
71974;BME280;59840;52.122;5.404;2022-09-09T10:50:12;100808.19;;;16.20;88.22
71974;BME280;59840;52.122;5.404;2022-09-09T10:53:02;100803.00;;;16.04;89.77
71974;BME280;59840;52.122;5.404;2022-09-09T10:55:38;100808.56;;;16.08;90.90
71974;BME280;59840;52.122;5.404;2022-09-09T10:58:11;100806.63;;;16.14;90.97
71974;BME280;59840;52.122;5.404;2022-09-09T11:00:44;100813.03;;;16.13;91.08
71974;BME280;59840;52.122;5.404;2022-09-09T11:03:19;100803.59;;;16.25;91.51
71974;BME280;59840;52.122;5.404;2022-09-09T11:05:49;100800.09;;;16.54;90.93
71974;BME280;59840;52.122;5.404;2022-09-09T11:08:21;100800.13;;;16.72;90.28
71974;BME280;59840;52.122;5.404;2022-09-09T11:11:06;100797.22;;;16.93;90.19
71974;BME280;59840;52.122;5.404;2022-09-09T11:16:53;100788.56;;;17.01;89.04
71974;BME280;59840;52.122;5.404;2022-09-09T11:19:42;100790.66;;;17.23;88.93
71974;BME280;59840;52.122;5.404;2022-09-09T11:22:32;100784.38;;;17.32;88.29
71974;BME280;59840;52.122;5.404;2022-09-09T11:25:29;100778.44;;;17.35;87.95
71974;BME280;59840;52.122;5.404;2022-09-09T11:28:40;100785.75;;;17.30;87.14
71974;BME280;59840;52.122;5.404;2022-09-09T11:34:19;100778.03;;;17.09;86.11
71974;BME280;59840;52.122;5.404;2022-09-09T11:40:07;100777.19;;;17.14;84.72
71974;BME280;59840;52.122;5.404;2022-09-09T11:42:36;100783.53;;;17.18;84.29
71974;BME280;59840;52.122;5.404;2022-09-09T11:45:22;100777.03;;;17.24;84.56
71974;BME280;59840;52.122;5.404;2022-09-09T11:47:54;100778.63;;;17.25;83.90
71974;BME280;59840;52.122;5.404;2022-09-09T11:52:48;100769.03;;;17.24;84.13
71974;BME280;59840;52.122;5.404;2022-09-09T11:55:29;100787.41;;;17.07;84.05
71974;BME280;59840;52.122;5.404;2022-09-09T11:58:05;100778.50;;;16.98;85.60
71974;BME280;59840;52.122;5.404;2022-09-09T12:00:37;100777.47;;;16.94;86.63
71974;BME280;59840;52.122;5.404;2022-09-09T12:03:04;100777.78;;;16.92;87.38
71974;BME280;59840;52.122;5.404;2022-09-09T12:05:50;100783.44;;;16.86;87.49
71974;BME280;59840;52.122;5.404;2022-09-09T12:08:26;100772.50;;;16.87;88.43
71974;BME280;59840;52.122;5.404;2022-09-09T12:10:58;100781.22;;;16.93;88.13
71974;BME280;59840;52.122;5.404;2022-09-09T12:13:29;100779.41;;;16.88;88.45
71974;BME280;59840;52.122;5.404;2022-09-09T12:15:58;100785.75;;;16.92;87.60
71974;BME280;59840;52.122;5.404;2022-09-09T12:18:36;100785.03;;;16.87;87.45
71974;BME280;59840;52.122;5.404;2022-09-09T12:21:27;100781.94;;;16.80;87.96
71974;BME280;59840;52.122;5.404;2022-09-09T12:24:11;100788.00;;;16.61;88.64
71974;BME280;59840;52.122;5.404;2022-09-09T12:26:42;100781.50;;;16.49;89.49
71974;BME280;59840;52.122;5.404;2022-09-09T12:32:14;100790.22;;;16.54;90.44
71974;BME280;59840;52.122;5.404;2022-09-09T12:34:47;100771.22;;;16.61;91.07
71974;BME280;59840;52.122;5.404;2022-09-09T12:37:21;100782.06;;;16.69;90.88
71974;BME280;59840;52.122;5.404;2022-09-09T12:39:57;100778.31;;;16.70;90.29
71974;BME280;59840;52.122;5.404;2022-09-09T12:42:26;100774.44;;;16.82;90.58
71974;BME280;59840;52.122;5.404;2022-09-09T12:45:01;100774.72;;;16.99;90.87
71974;BME280;59840;52.122;5.404;2022-09-09T12:49:56;100772.66;;;17.15;89.00
71974;BME280;59840;52.122;5.404;2022-09-09T12:52:28;100763.34;;;17.12;88.29
71974;BME280;59840;52.122;5.404;2022-09-09T12:54:57;100777.19;;;17.14;89.09
71974;BME280;59840;52.122;5.404;2022-09-09T12:57:25;100762.78;;;17.15;88.21
71974;BME280;59840;52.122;5.404;2022-09-09T13:00:07;100769.41;;;17.18;87.26
71974;BME280;59840;52.122;5.404;2022-09-09T13:02:35;100761.31;;;17.23;87.92
71974;BME280;59840;52.122;5.404;2022-09-09T13:05:25;100769.00;;;17.43;87.72
71974;BME280;59840;52.122;5.404;2022-09-09T13:08:00;100765.94;;;17.68;86.63
71974;BME280;59840;52.122;5.404;2022-09-09T13:10:32;100764.41;;;17.95;84.54
71974;BME280;59840;52.122;5.404;2022-09-09T13:13:26;100768.09;;;18.26;81.63
71974;BME280;59840;52.122;5.404;2022-09-09T13:15:55;100777.78;;;18.36;82.50
71974;BME280;59840;52.122;5.404;2022-09-09T13:18:28;100774.91;;;18.46;80.61
71974;BME280;59840;52.122;5.404;2022-09-09T13:20:56;100769.47;;;18.24;82.50
71974;BME280;59840;52.122;5.404;2022-09-09T13:23:31;100771.72;;;18.03;82.94
71974;BME280;59840;52.122;5.404;2022-09-09T13:26:00;100764.88;;;17.83;83.41
71974;BME280;59840;52.122;5.404;2022-09-09T13:28:29;100768.34;;;17.84;83.64
71974;BME280;59840;52.122;5.404;2022-09-09T13:31:04;100765.59;;;17.89;84.01
71974;BME280;59840;52.122;5.404;2022-09-09T13:33:37;100763.22;;;17.87;83.62
71974;BME280;59840;52.122;5.404;2022-09-09T13:36:07;100763.47;;;17.72;83.74
71974;BME280;59840;52.122;5.404;2022-09-09T13:38:40;100761.47;;;17.64;84.83
71974;BME280;59840;52.122;5.404;2022-09-09T13:41:20;100762.47;;;17.68;84.60
71974;BME280;59840;52.122;5.404;2022-09-09T13:43:47;100757.22;;;17.63;84.08
71974;BME280;59840;52.122;5.404;2022-09-09T13:51:45;100757.34;;;17.71;84.65
71974;BME280;59840;52.122;5.404;2022-09-09T13:54:15;100755.97;;;17.74;83.56
71974;BME280;59840;52.122;5.404;2022-09-09T13:56:43;100759.22;;;17.71;84.17
71974;BME280;59840;52.122;5.404;2022-09-09T13:59:16;100764.75;;;17.74;84.19
71974;BME280;59840;52.122;5.404;2022-09-09T14:01:42;100758.63;;;17.74;84.48
71974;BME280;59840;52.122;5.404;2022-09-09T14:04:09;100755.88;;;17.79;84.32
71974;BME280;59840;52.122;5.404;2022-09-09T14:06:37;100753.78;;;17.76;83.29
71974;BME280;59840;52.122;5.404;2022-09-09T14:09:10;100756.47;;;17.76;83.85
71974;BME280;59840;52.122;5.404;2022-09-09T14:11:38;100756.47;;;17.76;83.87
71974;BME280;59840;52.122;5.404;2022-09-09T14:14:04;100753.28;;;17.74;82.88
71974;BME280;59840;52.122;5.404;2022-09-09T14:16:31;100751.50;;;17.69;83.49
71974;BME280;59840;52.122;5.404;2022-09-09T14:18:58;100750.13;;;17.72;83.88
71974;BME280;59840;52.122;5.404;2022-09-09T14:21:26;100752.72;;;17.77;84.53
71974;BME280;59840;52.122;5.404;2022-09-09T14:23:52;100750.25;;;17.81;84.78
71974;BME280;59840;52.122;5.404;2022-09-09T14:26:20;100746.88;;;17.75;84.88
71974;BME280;59840;52.122;5.404;2022-09-09T14:28:48;100749.63;;;17.70;84.56
71974;BME280;59840;52.122;5.404;2022-09-09T14:31:22;100750.53;;;17.65;85.64
71974;BME280;59840;52.122;5.404;2022-09-09T14:33:49;100752.53;;;17.55;85.68
71974;BME280;59840;52.122;5.404;2022-09-09T14:36:16;100756.97;;;17.46;86.94
71974;BME280;59840;52.122;5.404;2022-09-09T14:38:43;100750.91;;;17.40;87.47
71974;BME280;59840;52.122;5.404;2022-09-09T14:41:14;100750.19;;;17.34;88.18
71974;BME280;59840;52.122;5.404;2022-09-09T14:43:45;100746.13;;;17.23;88.34
71974;BME280;59840;52.122;5.404;2022-09-09T14:46:14;100753.41;;;17.18;89.35
71974;BME280;59840;52.122;5.404;2022-09-09T14:48:41;100740.44;;;17.11;89.32